JTC369 KJAC-KVNY
Flight info
| Callsign | JTC369 |
|---|---|
| Flight time | 1h 53m |
| Altitude | 47000 |
| Route | DIVYD2 JEDHY DCT KICNE DCT FFU J9 MLF J107 BLD DCT PURSE JANNY5 |
| Aircraft | C750/M-SDE3FGHIRWY/LB1 |
Departure
| Time | 2026-05-03 22:22 |
|---|---|
| Airport | Jackson Hole Airport (KJAC) |
Arrival
| Time | 2026-05-04 00:15 |
|---|---|
| Airport | Van Nuys Airport (KVNY) |
| Time | Latitude | Longitude | Altitude | Speed | Heading |
|---|---|---|---|---|---|
| 2026-05-03 22:04 | 43.59959 | -110.73925 | 6427 ft | 0 kts | 111° |
| 2026-05-03 22:14 | 43.59959 | -110.73924 | 6427 ft | 0 kts | 111° |
| 2026-05-03 22:14 | 43.59955 | -110.73910 | 6427 ft | 2 kts | 104° |
| 2026-05-03 22:14 | 43.59966 | -110.73896 | 6425 ft | 3 kts | 27° |
| 2026-05-03 22:15 | 43.59991 | -110.73921 | 6427 ft | 7 kts | 297° |
| 2026-05-03 22:15 | 43.60024 | -110.73960 | 6427 ft | 6 kts | 346° |
| 2026-05-03 22:15 | 43.60056 | -110.73949 | 6425 ft | 4 kts | 23° |
| 2026-05-03 22:15 | 43.60077 | -110.73936 | 6427 ft | 3 kts | 23° |
| 2026-05-03 22:16 | 43.60101 | -110.73924 | 6425 ft | 4 kts | 19° |
| 2026-05-03 22:16 | 43.60129 | -110.73910 | 6425 ft | 5 kts | 19° |
| 2026-05-03 22:16 | 43.60162 | -110.73894 | 6424 ft | 6 kts | 20° |
| 2026-05-03 22:16 | 43.60219 | -110.73866 | 6425 ft | 11 kts | 19° |
| 2026-05-03 22:17 | 43.60283 | -110.73836 | 6426 ft | 9 kts | 19° |
| 2026-05-03 22:17 | 43.60345 | -110.73805 | 6426 ft | 10 kts | 19° |
| 2026-05-03 22:17 | 43.60418 | -110.73770 | 6426 ft | 12 kts | 19° |
| 2026-05-03 22:17 | 43.60491 | -110.73734 | 6424 ft | 11 kts | 19° |
| 2026-05-03 22:18 | 43.60568 | -110.73698 | 6427 ft | 12 kts | 18° |
| 2026-05-03 22:18 | 43.60647 | -110.73661 | 6427 ft | 12 kts | 19° |
| 2026-05-03 22:18 | 43.60726 | -110.73623 | 6427 ft | 12 kts | 20° |
| 2026-05-03 22:18 | 43.60805 | -110.73582 | 6425 ft | 12 kts | 21° |
| 2026-05-03 22:19 | 43.60877 | -110.73536 | 6426 ft | 10 kts | 22° |
| 2026-05-03 22:19 | 43.60907 | -110.73558 | 6426 ft | 4 kts | 220° |
| 2026-05-03 22:19 | 43.60860 | -110.73554 | 6427 ft | 11 kts | 184° |
| 2026-05-03 22:19 | 43.60759 | -110.73597 | 6427 ft | 20 kts | 197° |
| 2026-05-03 22:20 | 43.60605 | -110.73675 | 6425 ft | 25 kts | 199° |
| 2026-05-03 22:20 | 43.60449 | -110.73752 | 6427 ft | 23 kts | 199° |
| 2026-05-03 22:20 | 43.60298 | -110.73825 | 6425 ft | 24 kts | 199° |
| 2026-05-03 22:20 | 43.60150 | -110.73897 | 6425 ft | 21 kts | 200° |
| 2026-05-03 22:21 | 43.60020 | -110.73961 | 6425 ft | 19 kts | 200° |
| 2026-05-03 22:21 | 43.59915 | -110.74014 | 6426 ft | 10 kts | 201° |
| 2026-05-03 22:21 | 43.59909 | -110.74100 | 6427 ft | 11 kts | 289° |
| 2026-05-03 22:21 | 43.59955 | -110.74157 | 6425 ft | 9 kts | 15° |
| 2026-05-03 22:22 | 43.60070 | -110.74102 | 6427 ft | 41 kts | 20° |
| 2026-05-03 22:22 | 43.60671 | -110.73812 | 6427 ft | 135 kts | 19° |
| 2026-05-03 22:22 | 43.61659 | -110.73301 | 6758 ft | 153 kts | 17° |
| 2026-05-03 22:22 | 43.62659 | -110.72744 | 7403 ft | 159 kts | 17° |
| 2026-05-03 22:23 | 43.63722 | -110.72202 | 8047 ft | 168 kts | 18° |
| 2026-05-03 22:23 | 43.64813 | -110.71626 | 8779 ft | 167 kts | 16° |
| 2026-05-03 22:23 | 43.65970 | -110.71060 | 9226 ft | 190 kts | 12° |
| 2026-05-03 22:23 | 43.67344 | -110.70449 | 9494 ft | 225 kts | 19° |
| 2026-05-03 22:24 | 43.68655 | -110.69033 | 9880 ft | 261 kts | 51° |
| 2026-05-03 22:24 | 43.69481 | -110.66692 | 10485 ft | 274 kts | 63° |
| 2026-05-03 22:24 | 43.70139 | -110.64167 | 11256 ft | 281 kts | 73° |
| 2026-05-03 22:24 | 43.70673 | -110.61771 | 12818 ft | 244 kts | 66° |
| 2026-05-03 22:25 | 43.71469 | -110.59653 | 13459 ft | 258 kts | 55° |
| 2026-05-03 22:25 | 43.72485 | -110.57485 | 13894 ft | 278 kts | 53° |
| 2026-05-03 22:25 | 43.73693 | -110.55259 | 14200 ft | 301 kts | 50° |
| 2026-05-03 22:25 | 43.74932 | -110.52770 | 14375 ft | 329 kts | 58° |
| 2026-05-03 22:26 | 43.75593 | -110.49589 | 14300 ft | 364 kts | 85° |
| 2026-05-03 22:26 | 43.75145 | -110.46042 | 14298 ft | 388 kts | 113° |
| 2026-05-03 22:26 | 43.73555 | -110.43050 | 14843 ft | 387 kts | 140° |
| 2026-05-03 22:26 | 43.71313 | -110.41062 | 15584 ft | 384 kts | 154° |
| 2026-05-03 22:27 | 43.68873 | -110.39466 | 16081 ft | 391 kts | 158° |
| 2026-05-03 22:27 | 43.66412 | -110.37848 | 16798 ft | 393 kts | 155° |
| 2026-05-03 22:27 | 43.63987 | -110.36051 | 17340 ft | 398 kts | 158° |
| 2026-05-03 22:27 | 43.61328 | -110.35335 | 17928 ft | 396 kts | 184° |
| 2026-05-03 22:28 | 43.58675 | -110.36145 | 18651 ft | 390 kts | 202° |
| 2026-05-03 22:28 | 43.56306 | -110.37942 | 19223 ft | 390 kts | 217° |
| 2026-05-03 22:28 | 43.54317 | -110.40462 | 19905 ft | 389 kts | 231° |
| 2026-05-03 22:28 | 43.52656 | -110.43420 | 20473 ft | 394 kts | 236° |
| 2026-05-03 22:29 | 43.51013 | -110.46450 | 21190 ft | 395 kts | 235° |
| 2026-05-03 22:29 | 43.49341 | -110.49482 | 21746 ft | 401 kts | 235° |
| 2026-05-03 22:29 | 43.47637 | -110.52539 | 22398 ft | 404 kts | 235° |
| 2026-05-03 22:29 | 43.45913 | -110.55649 | 22971 ft | 408 kts | 235° |
| 2026-05-03 22:30 | 43.44189 | -110.58771 | 23563 ft | 411 kts | 235° |
| 2026-05-03 22:30 | 43.42475 | -110.61889 | 24069 ft | 415 kts | 236° |
| 2026-05-03 22:30 | 43.40716 | -110.65061 | 24670 ft | 417 kts | 235° |
| 2026-05-03 22:30 | 43.38945 | -110.68237 | 25168 ft | 420 kts | 235° |
| 2026-05-03 22:31 | 43.37165 | -110.71435 | 25669 ft | 423 kts | 235° |
| 2026-05-03 22:31 | 43.35377 | -110.74656 | 26235 ft | 425 kts | 235° |
| 2026-05-03 22:31 | 43.33578 | -110.77890 | 26777 ft | 427 kts | 235° |
| 2026-05-03 22:31 | 43.31766 | -110.81135 | 27325 ft | 429 kts | 235° |
| 2026-05-03 22:32 | 43.29942 | -110.84395 | 27854 ft | 432 kts | 235° |
| 2026-05-03 22:32 | 43.28112 | -110.87673 | 28389 ft | 434 kts | 235° |
| 2026-05-03 22:32 | 43.26268 | -110.90971 | 28930 ft | 437 kts | 235° |
| 2026-05-03 22:32 | 43.24225 | -110.94082 | 29413 ft | 443 kts | 227° |
| 2026-05-03 22:33 | 43.21831 | -110.96778 | 29967 ft | 448 kts | 219° |
| 2026-05-03 22:33 | 43.19141 | -110.98993 | 30376 ft | 455 kts | 210° |
| 2026-05-03 22:33 | 43.16190 | -111.00655 | 30824 ft | 462 kts | 202° |
| 2026-05-03 22:33 | 43.13072 | -111.01778 | 31375 ft | 463 kts | 197° |
| 2026-05-03 22:34 | 43.09954 | -111.02820 | 32038 ft | 460 kts | 198° |
| 2026-05-03 22:34 | 43.06857 | -111.03884 | 32655 ft | 458 kts | 198° |
| 2026-05-03 22:34 | 43.03766 | -111.04938 | 33269 ft | 457 kts | 198° |
| 2026-05-03 22:34 | 43.00681 | -111.05968 | 33918 ft | 455 kts | 197° |
| 2026-05-03 22:35 | 42.97614 | -111.06992 | 34507 ft | 453 kts | 198° |
| 2026-05-03 22:35 | 42.94563 | -111.08023 | 35008 ft | 452 kts | 198° |
| 2026-05-03 22:35 | 42.91505 | -111.09059 | 35502 ft | 453 kts | 197° |
| 2026-05-03 22:35 | 42.88448 | -111.10083 | 36067 ft | 452 kts | 197° |
| 2026-05-03 22:36 | 42.85398 | -111.11100 | 36598 ft | 451 kts | 197° |
| 2026-05-03 22:36 | 42.82352 | -111.12122 | 37117 ft | 451 kts | 197° |
| 2026-05-03 22:36 | 42.79305 | -111.13145 | 37587 ft | 451 kts | 197° |
| 2026-05-03 22:36 | 42.76259 | -111.14164 | 38089 ft | 451 kts | 197° |
| 2026-05-03 22:37 | 42.73220 | -111.15175 | 38630 ft | 449 kts | 196° |
| 2026-05-03 22:37 | 42.70187 | -111.16190 | 39013 ft | 449 kts | 197° |
| 2026-05-03 22:37 | 42.67148 | -111.17204 | 39396 ft | 450 kts | 197° |
| 2026-05-03 22:37 | 42.64109 | -111.18214 | 39778 ft | 450 kts | 196° |
| 2026-05-03 22:38 | 42.61074 | -111.19223 | 40172 ft | 449 kts | 197° |
| 2026-05-03 22:38 | 42.58041 | -111.20230 | 40602 ft | 449 kts | 197° |
| 2026-05-03 22:38 | 42.55008 | -111.21240 | 40967 ft | 449 kts | 197° |
| 2026-05-03 22:38 | 42.51969 | -111.22248 | 41373 ft | 449 kts | 197° |
| 2026-05-03 22:39 | 42.48931 | -111.23253 | 41786 ft | 449 kts | 197° |
| 2026-05-03 22:39 | 42.45890 | -111.24258 | 42190 ft | 450 kts | 197° |
| 2026-05-03 22:39 | 42.42850 | -111.25266 | 42604 ft | 450 kts | 197° |
| 2026-05-03 22:39 | 42.39848 | -111.26260 | 43003 ft | 450 kts | 197° |
| 2026-05-03 22:40 | 42.36808 | -111.27262 | 43471 ft | 449 kts | 197° |
| 2026-05-03 22:40 | 42.33772 | -111.28262 | 43864 ft | 450 kts | 197° |
| 2026-05-03 22:40 | 42.30729 | -111.29265 | 44258 ft | 450 kts | 197° |
| 2026-05-03 22:40 | 42.27684 | -111.30268 | 44631 ft | 451 kts | 197° |
| 2026-05-03 22:41 | 42.24637 | -111.31269 | 44961 ft | 451 kts | 197° |
| 2026-05-03 22:41 | 42.21590 | -111.32269 | 45279 ft | 451 kts | 197° |
| 2026-05-03 22:41 | 42.18543 | -111.33269 | 45593 ft | 450 kts | 197° |
| 2026-05-03 22:41 | 42.15504 | -111.34264 | 45959 ft | 449 kts | 197° |
| 2026-05-03 22:42 | 42.12475 | -111.35257 | 46240 ft | 449 kts | 197° |
| 2026-05-03 22:42 | 42.09439 | -111.36250 | 46494 ft | 449 kts | 197° |
| 2026-05-03 22:42 | 42.06405 | -111.37242 | 46747 ft | 448 kts | 197° |
| 2026-05-03 22:42 | 42.03377 | -111.38230 | 46950 ft | 449 kts | 197° |
| 2026-05-03 22:43 | 42.00319 | -111.39229 | 46926 ft | 455 kts | 197° |
| 2026-05-03 22:43 | 41.94096 | -111.41255 | 46939 ft | 465 kts | 197° |
| 2026-05-03 22:44 | 41.87737 | -111.43322 | 46937 ft | 475 kts | 197° |
| 2026-05-03 22:44 | 41.81248 | -111.45426 | 46941 ft | 484 kts | 197° |
| 2026-05-03 22:45 | 41.74654 | -111.47560 | 46934 ft | 491 kts | 197° |
| 2026-05-03 22:45 | 41.67978 | -111.49716 | 46947 ft | 496 kts | 197° |
| 2026-05-03 22:46 | 41.61252 | -111.51884 | 46953 ft | 499 kts | 197° |
| 2026-05-03 22:46 | 41.54472 | -111.54063 | 46915 ft | 502 kts | 197° |
| 2026-05-03 22:47 | 41.47668 | -111.56247 | 46911 ft | 504 kts | 197° |
| 2026-05-03 22:47 | 41.40843 | -111.58432 | 46919 ft | 505 kts | 197° |
| 2026-05-03 22:48 | 41.34018 | -111.60612 | 46911 ft | 504 kts | 197° |
| 2026-05-03 22:48 | 41.27230 | -111.62778 | 46924 ft | 505 kts | 197° |
| 2026-05-03 22:49 | 41.20392 | -111.64952 | 46935 ft | 505 kts | 197° |
| 2026-05-03 22:49 | 41.13554 | -111.67123 | 46907 ft | 505 kts | 197° |
| 2026-05-03 22:50 | 41.06714 | -111.69290 | 46944 ft | 505 kts | 197° |
| 2026-05-03 22:50 | 40.99870 | -111.71453 | 46938 ft | 506 kts | 197° |
| 2026-05-03 22:51 | 40.93032 | -111.73609 | 46922 ft | 505 kts | 197° |
| 2026-05-03 22:51 | 40.86210 | -111.75756 | 46925 ft | 503 kts | 197° |
| 2026-05-03 22:52 | 40.79397 | -111.77897 | 46932 ft | 503 kts | 197° |
| 2026-05-03 22:52 | 40.72581 | -111.80032 | 46933 ft | 504 kts | 197° |
| 2026-05-03 22:53 | 40.65758 | -111.82167 | 46941 ft | 504 kts | 197° |
| 2026-05-03 22:53 | 40.58938 | -111.84295 | 46947 ft | 504 kts | 197° |
| 2026-05-03 22:54 | 40.52120 | -111.86419 | 46942 ft | 504 kts | 197° |
| 2026-05-03 22:54 | 40.45310 | -111.88534 | 46929 ft | 501 kts | 197° |
| 2026-05-03 22:55 | 40.38522 | -111.90641 | 46924 ft | 501 kts | 197° |
| 2026-05-03 22:55 | 40.31730 | -111.92743 | 46935 ft | 502 kts | 197° |
| 2026-05-03 22:56 | 40.25119 | -111.95430 | 46934 ft | 490 kts | 208° |
| 2026-05-03 22:56 | 40.18928 | -111.99115 | 46941 ft | 490 kts | 208° |
| 2026-05-03 22:57 | 40.12742 | -112.02723 | 46917 ft | 490 kts | 208° |
| 2026-05-03 22:57 | 40.06530 | -112.06386 | 46882 ft | 490 kts | 208° |
| 2026-05-03 22:58 | 40.00322 | -112.10009 | 46872 ft | 487 kts | 208° |
| 2026-05-03 22:58 | 39.94144 | -112.13610 | 46868 ft | 486 kts | 207° |
| 2026-05-03 22:59 | 39.88933 | -112.16530 | 46869 ft | 487 kts | 207° |
| 2026-05-03 22:59 | 39.82734 | -112.20063 | 46868 ft | 486 kts | 208° |
| 2026-05-03 23:00 | 39.76531 | -112.23569 | 46871 ft | 485 kts | 207° |
| 2026-05-03 23:00 | 39.70391 | -112.27041 | 46871 ft | 485 kts | 208° |
| 2026-05-03 23:01 | 39.64199 | -112.30533 | 46866 ft | 485 kts | 207° |
| 2026-05-03 23:01 | 39.57999 | -112.34022 | 46863 ft | 486 kts | 207° |
| 2026-05-03 23:02 | 39.51827 | -112.37489 | 46859 ft | 482 kts | 208° |
| 2026-05-03 23:02 | 39.45664 | -112.40946 | 46861 ft | 483 kts | 208° |
| 2026-05-03 23:03 | 39.39497 | -112.44396 | 46860 ft | 483 kts | 208° |
| 2026-05-03 23:03 | 39.33330 | -112.47843 | 46857 ft | 483 kts | 207° |
| 2026-05-03 23:04 | 39.27173 | -112.51272 | 46860 ft | 481 kts | 207° |
| 2026-05-03 23:04 | 39.21018 | -112.54699 | 46858 ft | 482 kts | 207° |
| 2026-05-03 23:05 | 39.14861 | -112.58117 | 46861 ft | 482 kts | 207° |
| 2026-05-03 23:05 | 39.08704 | -112.61530 | 46822 ft | 482 kts | 207° |
| 2026-05-03 23:06 | 39.02556 | -112.64930 | 46840 ft | 481 kts | 207° |
| 2026-05-03 23:06 | 38.96406 | -112.68327 | 46839 ft | 481 kts | 207° |
| 2026-05-03 23:07 | 38.90258 | -112.71715 | 46839 ft | 481 kts | 207° |
| 2026-05-03 23:07 | 38.84111 | -112.75097 | 46811 ft | 481 kts | 208° |
| 2026-05-03 23:08 | 38.77963 | -112.78472 | 46833 ft | 481 kts | 208° |
| 2026-05-03 23:08 | 38.71802 | -112.81848 | 46833 ft | 482 kts | 207° |
| 2026-05-03 23:09 | 38.65682 | -112.85196 | 46864 ft | 482 kts | 208° |
| 2026-05-03 23:09 | 38.59515 | -112.88563 | 46866 ft | 482 kts | 208° |
| 2026-05-03 23:10 | 38.53356 | -112.91918 | 46912 ft | 481 kts | 208° |
| 2026-05-03 23:10 | 38.47194 | -112.95270 | 46927 ft | 481 kts | 208° |
| 2026-05-03 23:11 | 38.41032 | -112.98616 | 46927 ft | 481 kts | 208° |
| 2026-05-03 23:11 | 38.34979 | -113.02199 | 46927 ft | 476 kts | 215° |
| 2026-05-03 23:12 | 38.29413 | -113.06730 | 46919 ft | 475 kts | 217° |
| 2026-05-03 23:12 | 38.23838 | -113.11240 | 46889 ft | 475 kts | 217° |
| 2026-05-03 23:13 | 38.18283 | -113.15760 | 46865 ft | 474 kts | 217° |
| 2026-05-03 23:13 | 38.12716 | -113.20262 | 46838 ft | 474 kts | 217° |
| 2026-05-03 23:14 | 38.07167 | -113.24750 | 46813 ft | 470 kts | 217° |
| 2026-05-03 23:14 | 38.01639 | -113.29211 | 46811 ft | 471 kts | 217° |
| 2026-05-03 23:15 | 37.96103 | -113.33669 | 46840 ft | 471 kts | 217° |
| 2026-05-03 23:15 | 37.90566 | -113.38121 | 46848 ft | 471 kts | 217° |
| 2026-05-03 23:16 | 37.85058 | -113.42525 | 46857 ft | 472 kts | 217° |
| 2026-05-03 23:16 | 37.79549 | -113.46910 | 46821 ft | 466 kts | 218° |
| 2026-05-03 23:17 | 37.74056 | -113.51291 | 46830 ft | 467 kts | 217° |
| 2026-05-03 23:17 | 37.68553 | -113.55657 | 46831 ft | 467 kts | 217° |
| 2026-05-03 23:18 | 37.63048 | -113.60027 | 46832 ft | 467 kts | 217° |
| 2026-05-03 23:18 | 37.57540 | -113.64385 | 46792 ft | 467 kts | 218° |
| 2026-05-03 23:19 | 37.52061 | -113.68716 | 46822 ft | 465 kts | 218° |
| 2026-05-03 23:19 | 37.46578 | -113.73042 | 46812 ft | 465 kts | 218° |
| 2026-05-03 23:20 | 37.41094 | -113.77358 | 46803 ft | 465 kts | 218° |
| 2026-05-03 23:20 | 37.35602 | -113.81680 | 46797 ft | 466 kts | 218° |
| 2026-05-03 23:21 | 37.30101 | -113.85992 | 46787 ft | 465 kts | 218° |
| 2026-05-03 23:21 | 37.24617 | -113.90292 | 46771 ft | 465 kts | 218° |
| 2026-05-03 23:22 | 37.16386 | -113.96724 | 46769 ft | 464 kts | 218° |
| 2026-05-03 23:22 | 37.10936 | -114.00977 | 46746 ft | 465 kts | 218° |
| 2026-05-03 23:23 | 37.05442 | -114.05254 | 46751 ft | 465 kts | 218° |
| 2026-05-03 23:23 | 36.99997 | -114.09484 | 46740 ft | 458 kts | 218° |
| 2026-05-03 23:24 | 36.94582 | -114.13692 | 46731 ft | 459 kts | 218° |
| 2026-05-03 23:24 | 36.89151 | -114.17895 | 46724 ft | 460 kts | 217° |
| 2026-05-03 23:25 | 36.83717 | -114.22099 | 46727 ft | 459 kts | 217° |
| 2026-05-03 23:25 | 36.78281 | -114.26296 | 46703 ft | 460 kts | 217° |
| 2026-05-03 23:26 | 36.72916 | -114.30413 | 46698 ft | 449 kts | 217° |
| 2026-05-03 23:26 | 36.67577 | -114.34469 | 46686 ft | 451 kts | 217° |
| 2026-05-03 23:27 | 36.62223 | -114.38542 | 46689 ft | 451 kts | 217° |
| 2026-05-03 23:27 | 36.56847 | -114.42619 | 46678 ft | 453 kts | 217° |
| 2026-05-03 23:28 | 36.51462 | -114.46699 | 46681 ft | 453 kts | 217° |
| 2026-05-03 23:28 | 36.46125 | -114.50733 | 46669 ft | 448 kts | 217° |
| 2026-05-03 23:29 | 36.40829 | -114.54808 | 46665 ft | 448 kts | 217° |
| 2026-05-03 23:29 | 36.35532 | -114.58890 | 46661 ft | 448 kts | 217° |
| 2026-05-03 23:30 | 36.30252 | -114.62935 | 46667 ft | 449 kts | 217° |
| 2026-05-03 23:30 | 36.24951 | -114.67001 | 46679 ft | 446 kts | 217° |
| 2026-05-03 23:31 | 36.19733 | -114.70994 | 46677 ft | 441 kts | 217° |
| 2026-05-03 23:31 | 36.14499 | -114.74997 | 46707 ft | 443 kts | 217° |
| 2026-05-03 23:32 | 36.09233 | -114.79008 | 46747 ft | 446 kts | 217° |
| 2026-05-03 23:32 | 36.03947 | -114.83037 | 46759 ft | 447 kts | 217° |
| 2026-05-03 23:33 | 35.98672 | -114.87083 | 46758 ft | 445 kts | 218° |
| 2026-05-03 23:33 | 35.93503 | -114.91299 | 46754 ft | 445 kts | 218° |
| 2026-05-03 23:34 | 35.88327 | -114.95484 | 46750 ft | 445 kts | 218° |
| 2026-05-03 23:34 | 35.83154 | -114.99676 | 46744 ft | 445 kts | 218° |
| 2026-05-03 23:35 | 35.77972 | -115.03861 | 46795 ft | 446 kts | 218° |
| 2026-05-03 23:35 | 35.72787 | -115.08046 | 46795 ft | 446 kts | 218° |
| 2026-05-03 23:36 | 35.67661 | -115.12169 | 46321 ft | 434 kts | 218° |
| 2026-05-03 23:36 | 35.65169 | -115.14169 | 45759 ft | 422 kts | 218° |
| 2026-05-03 23:36 | 35.62712 | -115.16148 | 45225 ft | 412 kts | 218° |
| 2026-05-03 23:37 | 35.60375 | -115.18037 | 44679 ft | 402 kts | 219° |
| 2026-05-03 23:37 | 35.58190 | -115.20086 | 44108 ft | 389 kts | 225° |
| 2026-05-03 23:37 | 35.56281 | -115.22359 | 43612 ft | 377 kts | 231° |
| 2026-05-03 23:37 | 35.54541 | -115.24743 | 43125 ft | 374 kts | 232° |
| 2026-05-03 23:38 | 35.52784 | -115.27119 | 42643 ft | 378 kts | 232° |
| 2026-05-03 23:38 | 35.51009 | -115.29508 | 42140 ft | 379 kts | 232° |
| 2026-05-03 23:38 | 35.49240 | -115.31901 | 41643 ft | 379 kts | 232° |
| 2026-05-03 23:38 | 35.47475 | -115.34297 | 41143 ft | 378 kts | 232° |
| 2026-05-03 23:39 | 35.45710 | -115.36685 | 40644 ft | 377 kts | 232° |
| 2026-05-03 23:39 | 35.43948 | -115.39063 | 40147 ft | 377 kts | 232° |
| 2026-05-03 23:39 | 35.42183 | -115.41445 | 39657 ft | 377 kts | 232° |
| 2026-05-03 23:39 | 35.40409 | -115.43838 | 39148 ft | 379 kts | 233° |
| 2026-05-03 23:40 | 35.38650 | -115.46208 | 38657 ft | 373 kts | 232° |
| 2026-05-03 23:40 | 35.36902 | -115.48568 | 38112 ft | 377 kts | 233° |
| 2026-05-03 23:40 | 35.35138 | -115.50949 | 37670 ft | 377 kts | 233° |
| 2026-05-03 23:40 | 35.33355 | -115.53352 | 37121 ft | 383 kts | 233° |
| 2026-05-03 23:41 | 35.31559 | -115.55755 | 36621 ft | 383 kts | 233° |
| 2026-05-03 23:41 | 35.29759 | -115.58170 | 36111 ft | 384 kts | 233° |
| 2026-05-03 23:41 | 35.27954 | -115.60597 | 35605 ft | 387 kts | 233° |
| 2026-05-03 23:41 | 35.26147 | -115.63030 | 35091 ft | 387 kts | 233° |
| 2026-05-03 23:42 | 35.24329 | -115.65468 | 34569 ft | 388 kts | 233° |
| 2026-05-03 23:42 | 35.22499 | -115.67909 | 34052 ft | 390 kts | 233° |
| 2026-05-03 23:42 | 35.20666 | -115.70358 | 33506 ft | 390 kts | 233° |
| 2026-05-03 23:42 | 35.18837 | -115.72814 | 32986 ft | 392 kts | 233° |
| 2026-05-03 23:43 | 35.16999 | -115.75276 | 32471 ft | 393 kts | 233° |
| 2026-05-03 23:43 | 35.15153 | -115.77736 | 31932 ft | 393 kts | 233° |
| 2026-05-03 23:43 | 35.13311 | -115.80202 | 31413 ft | 392 kts | 233° |
| 2026-05-03 23:43 | 35.11707 | -115.82877 | 30883 ft | 388 kts | 241° |
| 2026-05-03 23:44 | 35.10301 | -115.85700 | 30379 ft | 392 kts | 241° |
| 2026-05-03 23:44 | 35.08872 | -115.88502 | 29857 ft | 387 kts | 241° |
| 2026-05-03 23:44 | 35.07453 | -115.91272 | 29301 ft | 383 kts | 241° |
| 2026-05-03 23:44 | 35.06061 | -115.94029 | 28794 ft | 380 kts | 241° |
| 2026-05-03 23:45 | 35.04677 | -115.96766 | 28296 ft | 378 kts | 241° |
| 2026-05-03 23:45 | 35.03291 | -115.99485 | 27765 ft | 375 kts | 241° |
| 2026-05-03 23:45 | 35.01910 | -116.02185 | 27292 ft | 375 kts | 241° |
| 2026-05-03 23:45 | 35.00541 | -116.04874 | 26800 ft | 371 kts | 241° |
| 2026-05-03 23:46 | 34.99186 | -116.07541 | 26315 ft | 369 kts | 240° |
| 2026-05-03 23:46 | 34.98292 | -116.09297 | 25987 ft | 367 kts | 240° |
| 2026-05-03 23:46 | 34.96946 | -116.11930 | 25505 ft | 364 kts | 240° |
| 2026-05-03 23:46 | 34.95613 | -116.14542 | 25021 ft | 362 kts | 240° |
| 2026-05-03 23:47 | 34.94287 | -116.17139 | 24539 ft | 360 kts | 240° |
| 2026-05-03 23:47 | 34.92968 | -116.19716 | 24074 ft | 357 kts | 240° |
| 2026-05-03 23:47 | 34.91716 | -116.22282 | 23746 ft | 339 kts | 243° |
| 2026-05-03 23:47 | 34.90755 | -116.24800 | 23741 ft | 325 kts | 245° |
| 2026-05-03 23:48 | 34.89791 | -116.27281 | 23747 ft | 324 kts | 245° |
| 2026-05-03 23:48 | 34.88821 | -116.29750 | 23752 ft | 322 kts | 245° |
| 2026-05-03 23:48 | 34.87862 | -116.32219 | 23740 ft | 322 kts | 246° |
| 2026-05-03 23:48 | 34.86906 | -116.34698 | 23754 ft | 321 kts | 245° |
| 2026-05-03 23:49 | 34.85952 | -116.37164 | 23751 ft | 322 kts | 245° |
| 2026-05-03 23:49 | 34.84993 | -116.39626 | 23762 ft | 322 kts | 245° |
| 2026-05-03 23:49 | 34.84033 | -116.42086 | 23767 ft | 321 kts | 245° |
| 2026-05-03 23:49 | 34.83076 | -116.44547 | 23768 ft | 321 kts | 245° |
| 2026-05-03 23:50 | 34.82099 | -116.47062 | 23672 ft | 341 kts | 245° |
| 2026-05-03 23:50 | 34.81075 | -116.49689 | 23416 ft | 347 kts | 245° |
| 2026-05-03 23:50 | 34.80038 | -116.52342 | 23093 ft | 349 kts | 245° |
| 2026-05-03 23:50 | 34.79071 | -116.55053 | 22779 ft | 346 kts | 250° |
| 2026-05-03 23:51 | 34.78546 | -116.57776 | 22774 ft | 324 kts | 258° |
| 2026-05-03 23:51 | 34.78284 | -116.60535 | 22727 ft | 337 kts | 260° |
| 2026-05-03 23:51 | 34.77999 | -116.63422 | 22473 ft | 347 kts | 260° |
| 2026-05-03 23:51 | 34.77704 | -116.66372 | 22173 ft | 353 kts | 260° |
| 2026-05-03 23:52 | 34.77421 | -116.69334 | 21862 ft | 353 kts | 260° |
| 2026-05-03 23:52 | 34.77154 | -116.72175 | 21802 ft | 326 kts | 260° |
| 2026-05-03 23:52 | 34.76885 | -116.74916 | 21809 ft | 327 kts | 260° |
| 2026-05-03 23:52 | 34.76613 | -116.77643 | 21805 ft | 327 kts | 260° |
| 2026-05-03 23:53 | 34.76347 | -116.80379 | 21810 ft | 326 kts | 260° |
| 2026-05-03 23:53 | 34.76085 | -116.83078 | 21794 ft | 326 kts | 260° |
| 2026-05-03 23:53 | 34.75815 | -116.85810 | 21806 ft | 325 kts | 260° |
| 2026-05-03 23:53 | 34.75546 | -116.88532 | 21806 ft | 324 kts | 260° |
| 2026-05-03 23:54 | 34.75271 | -116.91249 | 21803 ft | 324 kts | 260° |
| 2026-05-03 23:54 | 34.74996 | -116.93966 | 21801 ft | 324 kts | 260° |
| 2026-05-03 23:54 | 34.74722 | -116.96681 | 21800 ft | 324 kts | 260° |
| 2026-05-03 23:54 | 34.74447 | -116.99399 | 21805 ft | 324 kts | 260° |
| 2026-05-03 23:55 | 34.74171 | -117.02114 | 21803 ft | 323 kts | 260° |
| 2026-05-03 23:55 | 34.73895 | -117.04829 | 21803 ft | 324 kts | 260° |
| 2026-05-03 23:55 | 34.73617 | -117.07550 | 21796 ft | 324 kts | 260° |
| 2026-05-03 23:55 | 34.73340 | -117.10270 | 21799 ft | 324 kts | 260° |
| 2026-05-03 23:56 | 34.73061 | -117.12988 | 21807 ft | 323 kts | 260° |
| 2026-05-03 23:56 | 34.72782 | -117.15703 | 21811 ft | 323 kts | 260° |
| 2026-05-03 23:56 | 34.72501 | -117.18424 | 21804 ft | 330 kts | 260° |
| 2026-05-03 23:56 | 34.72202 | -117.21284 | 21590 ft | 345 kts | 260° |
| 2026-05-03 23:57 | 34.71901 | -117.24214 | 21263 ft | 350 kts | 260° |
| 2026-05-03 23:57 | 34.71598 | -117.27172 | 20922 ft | 354 kts | 260° |
| 2026-05-03 23:57 | 34.71288 | -117.30151 | 20576 ft | 356 kts | 260° |
| 2026-05-03 23:57 | 34.70976 | -117.33141 | 20227 ft | 357 kts | 260° |
| 2026-05-03 23:58 | 34.70664 | -117.36135 | 19877 ft | 359 kts | 260° |
| 2026-05-03 23:58 | 34.70350 | -117.39141 | 19526 ft | 359 kts | 260° |
| 2026-05-03 23:58 | 34.70030 | -117.42177 | 19169 ft | 365 kts | 260° |
| 2026-05-03 23:58 | 34.69705 | -117.45250 | 18802 ft | 366 kts | 260° |
| 2026-05-03 23:59 | 34.69383 | -117.48331 | 18448 ft | 364 kts | 260° |
| 2026-05-03 23:59 | 34.69064 | -117.51351 | 18054 ft | 362 kts | 260° |
| 2026-05-03 23:59 | 34.68740 | -117.54372 | 17675 ft | 360 kts | 260° |
| 2026-05-03 23:59 | 34.68419 | -117.57383 | 17303 ft | 359 kts | 260° |
| 2026-05-04 00:00 | 34.68100 | -117.60387 | 16943 ft | 357 kts | 260° |
| 2026-05-04 00:00 | 34.67779 | -117.63375 | 16586 ft | 356 kts | 260° |
| 2026-05-04 00:00 | 34.67464 | -117.66349 | 16233 ft | 355 kts | 260° |
| 2026-05-04 00:00 | 34.67152 | -117.69317 | 15869 ft | 351 kts | 260° |
| 2026-05-04 00:01 | 34.66837 | -117.72282 | 15503 ft | 356 kts | 260° |
| 2026-05-04 00:01 | 34.66523 | -117.75231 | 15143 ft | 354 kts | 259° |
| 2026-05-04 00:01 | 34.66211 | -117.78148 | 14823 ft | 347 kts | 259° |
| 2026-05-04 00:01 | 34.65899 | -117.81074 | 14494 ft | 350 kts | 259° |
| 2026-05-04 00:02 | 34.65586 | -117.83993 | 14163 ft | 349 kts | 259° |
| 2026-05-04 00:02 | 34.65274 | -117.86893 | 13822 ft | 344 kts | 259° |
| 2026-05-04 00:02 | 34.64963 | -117.89765 | 13464 ft | 340 kts | 259° |
| 2026-05-04 00:02 | 34.64652 | -117.92612 | 13127 ft | 345 kts | 259° |
| 2026-05-04 00:03 | 34.64340 | -117.95466 | 12794 ft | 340 kts | 259° |
| 2026-05-04 00:03 | 34.64024 | -117.98351 | 12457 ft | 340 kts | 259° |
| 2026-05-04 00:03 | 34.63711 | -118.01198 | 12120 ft | 343 kts | 259° |
| 2026-05-04 00:03 | 34.63402 | -118.04027 | 11781 ft | 340 kts | 259° |
| 2026-05-04 00:04 | 34.63044 | -118.06862 | 11442 ft | 337 kts | 254° |
| 2026-05-04 00:04 | 34.62444 | -118.09560 | 11116 ft | 338 kts | 252° |
| 2026-05-04 00:04 | 34.61825 | -118.12257 | 10783 ft | 313 kts | 253° |
| 2026-05-04 00:04 | 34.61294 | -118.14697 | 10463 ft | 287 kts | 252° |
| 2026-05-04 00:05 | 34.60801 | -118.16953 | 10184 ft | 277 kts | 252° |
| 2026-05-04 00:05 | 34.60295 | -118.19198 | 9913 ft | 278 kts | 251° |
| 2026-05-04 00:05 | 34.59796 | -118.21425 | 9640 ft | 269 kts | 252° |
| 2026-05-04 00:05 | 34.59304 | -118.23636 | 9350 ft | 270 kts | 252° |
| 2026-05-04 00:06 | 34.58823 | -118.25799 | 9019 ft | 265 kts | 252° |
| 2026-05-04 00:06 | 34.58337 | -118.27964 | 8657 ft | 262 kts | 251° |
| 2026-05-04 00:06 | 34.57853 | -118.30128 | 8373 ft | 267 kts | 252° |
| 2026-05-04 00:06 | 34.57378 | -118.32256 | 8088 ft | 257 kts | 252° |
| 2026-05-04 00:07 | 34.56907 | -118.34364 | 7935 ft | 252 kts | 252° |
| 2026-05-04 00:07 | 34.56441 | -118.36442 | 7938 ft | 251 kts | 251° |
| 2026-05-04 00:07 | 34.55978 | -118.38509 | 7953 ft | 249 kts | 252° |
| 2026-05-04 00:07 | 34.55513 | -118.40571 | 7952 ft | 260 kts | 252° |
| 2026-05-04 00:08 | 34.55041 | -118.42662 | 7958 ft | 249 kts | 252° |
| 2026-05-04 00:08 | 34.54570 | -118.44753 | 7733 ft | 260 kts | 251° |
| 2026-05-04 00:08 | 34.54058 | -118.46808 | 7326 ft | 254 kts | 246° |
| 2026-05-04 00:08 | 34.53085 | -118.48603 | 6981 ft | 252 kts | 227° |
| 2026-05-04 00:09 | 34.51666 | -118.49910 | 6650 ft | 258 kts | 210° |
| 2026-05-04 00:09 | 34.50001 | -118.50713 | 6335 ft | 255 kts | 202° |
| 2026-05-04 00:09 | 34.48371 | -118.51368 | 5967 ft | 240 kts | 194° |
| 2026-05-04 00:09 | 34.46761 | -118.51485 | 5884 ft | 220 kts | 181° |
| 2026-05-04 00:10 | 34.45262 | -118.51341 | 5986 ft | 213 kts | 180° |
| 2026-05-04 00:10 | 34.43775 | -118.51197 | 5891 ft | 215 kts | 179° |
| 2026-05-04 00:10 | 34.42307 | -118.51060 | 5570 ft | 208 kts | 177° |
| 2026-05-04 00:10 | 34.40875 | -118.50925 | 5248 ft | 205 kts | 177° |
| 2026-05-04 00:11 | 34.39478 | -118.50793 | 4949 ft | 201 kts | 178° |
| 2026-05-04 00:11 | 34.38085 | -118.50660 | 4633 ft | 199 kts | 178° |
| 2026-05-04 00:11 | 34.36713 | -118.50532 | 4317 ft | 198 kts | 177° |
| 2026-05-04 00:11 | 34.35357 | -118.50404 | 4014 ft | 193 kts | 178° |
| 2026-05-04 00:12 | 34.34027 | -118.50275 | 3729 ft | 191 kts | 177° |
| 2026-05-04 00:12 | 34.32724 | -118.50151 | 3419 ft | 184 kts | 178° |
| 2026-05-04 00:12 | 34.31472 | -118.50030 | 3165 ft | 176 kts | 178° |
| 2026-05-04 00:12 | 34.30264 | -118.49910 | 2852 ft | 174 kts | 177° |
| 2026-05-04 00:13 | 34.29080 | -118.49797 | 2553 ft | 165 kts | 178° |
| 2026-05-04 00:13 | 34.28025 | -118.49700 | 2234 ft | 141 kts | 176° |
| 2026-05-04 00:13 | 34.27082 | -118.49609 | 2048 ft | 131 kts | 176° |
| 2026-05-04 00:13 | 34.26185 | -118.49526 | 1873 ft | 127 kts | 176° |
| 2026-05-04 00:14 | 34.25294 | -118.49451 | 1700 ft | 129 kts | 176° |
| 2026-05-04 00:14 | 34.24418 | -118.49367 | 1524 ft | 123 kts | 174° |
| 2026-05-04 00:14 | 34.23567 | -118.49286 | 1348 ft | 123 kts | 174° |
| 2026-05-04 00:14 | 34.22702 | -118.49192 | 1093 ft | 126 kts | 172° |
| 2026-05-04 00:15 | 34.21815 | -118.49116 | 876 ft | 128 kts | 172° |
| 2026-05-04 00:15 | 34.20990 | -118.49045 | 789 ft | 107 kts | 169° |
| 2026-05-04 00:15 | 34.20440 | -118.48980 | 770 ft | 51 kts | 176° |
| 2026-05-04 00:15 | 34.20302 | -118.48982 | 766 ft | 9 kts | 187° |
| 2026-05-04 00:16 | 34.20265 | -118.49031 | 766 ft | 8 kts | 259° |
| 2026-05-04 00:16 | 34.20280 | -118.49078 | 767 ft | 5 kts | 317° |
| 2026-05-04 00:16 | 34.20321 | -118.49097 | 768 ft | 10 kts | 348° |
| 2026-05-04 00:16 | 34.20408 | -118.49105 | 771 ft | 16 kts | 357° |
| 2026-05-04 00:17 | 34.20529 | -118.49116 | 774 ft | 17 kts | 355° |
| 2026-05-04 00:17 | 34.20637 | -118.49126 | 777 ft | 15 kts | 356° |
| 2026-05-04 00:17 | 34.20733 | -118.49134 | 779 ft | 13 kts | 355° |
| 2026-05-04 00:17 | 34.20819 | -118.49143 | 782 ft | 13 kts | 354° |
| 2026-05-04 00:18 | 34.20907 | -118.49152 | 784 ft | 13 kts | 356° |
| 2026-05-04 00:18 | 34.20993 | -118.49159 | 785 ft | 12 kts | 355° |
| 2026-05-04 00:18 | 34.21075 | -118.49168 | 787 ft | 11 kts | 354° |
| 2026-05-04 00:18 | 34.21145 | -118.49175 | 789 ft | 9 kts | 356° |
| 2026-05-04 00:19 | 34.21212 | -118.49180 | 791 ft | 11 kts | 357° |
| 2026-05-04 00:19 | 34.21300 | -118.49187 | 793 ft | 13 kts | 355° |
| 2026-05-04 00:19 | 34.21387 | -118.49196 | 794 ft | 12 kts | 355° |
| 2026-05-04 00:19 | 34.21467 | -118.49205 | 796 ft | 11 kts | 353° |
| 2026-05-04 00:20 | 34.21535 | -118.49217 | 798 ft | 9 kts | 353° |
| 2026-05-04 00:20 | 34.21602 | -118.49224 | 800 ft | 10 kts | 357° |
| 2026-05-04 00:20 | 34.21668 | -118.49228 | 802 ft | 11 kts | 358° |
| 2026-05-04 00:20 | 34.21718 | -118.49272 | 803 ft | 9 kts | 282° |
| 2026-05-04 00:21 | 34.21727 | -118.49343 | 803 ft | 8 kts | 278° |
| 2026-05-04 00:21 | 34.21737 | -118.49425 | 804 ft | 11 kts | 278° |
| 2026-05-04 00:21 | 34.21749 | -118.49517 | 804 ft | 11 kts | 279° |
| 2026-05-04 00:21 | 34.21760 | -118.49605 | 804 ft | 10 kts | 280° |
| 2026-05-04 00:22 | 34.21780 | -118.49674 | 805 ft | 7 kts | 311° |
| 2026-05-04 00:22 | 34.21810 | -118.49689 | 806 ft | 4 kts | 346° |
| 2026-05-04 00:22 | 34.21825 | -118.49692 | 806 ft | 2 kts | 356° |
| 2026-05-04 00:22 | 34.21834 | -118.49685 | 806 ft | 1 kts | 52° |
| 2026-05-04 00:23 | 34.21835 | -118.49681 | 806 ft | 0 kts | 70° |